createdAt,value
2023-11-02T00:00:36.856Z,9.05
2023-11-02T00:03:08.245Z,9.05
2023-11-02T00:05:51.948Z,9.06
2023-11-02T00:08:18.550Z,9.10
2023-11-02T00:10:45.188Z,9.13
2023-11-02T00:13:23.440Z,9.13
2023-11-02T00:15:50.065Z,9.15
2023-11-02T00:18:19.441Z,9.16
2023-11-02T00:20:49.329Z,9.16
2023-11-02T00:23:40.774Z,9.20
2023-11-02T00:26:07.527Z,9.20
2023-11-02T00:28:34.011Z,9.24
2023-11-02T00:31:01.862Z,9.27
2023-11-02T00:33:28.840Z,9.30
2023-11-02T00:35:55.775Z,9.30
2023-11-02T00:38:30.223Z,9.32
2023-11-02T00:40:58.512Z,9.36
2023-11-02T00:43:25.291Z,9.38
2023-11-02T00:45:52.905Z,9.39
2023-11-02T00:48:31.063Z,9.41
2023-11-02T00:51:25.518Z,9.38
2023-11-02T00:54:00.087Z,9.39
2023-11-02T00:56:37.088Z,9.41
2023-11-02T00:59:05.881Z,9.44
2023-11-02T01:01:33.090Z,9.46
2023-11-02T01:04:06.726Z,9.48
2023-11-02T01:06:34.901Z,9.48
2023-11-02T01:09:05.932Z,9.49
2023-11-02T01:11:36.319Z,9.51
2023-11-02T01:14:26.857Z,9.53
2023-11-02T01:16:53.541Z,9.54
2023-11-02T01:19:58.762Z,9.53
2023-11-02T01:22:41.318Z,9.55
2023-11-02T01:25:13.009Z,9.56
2023-11-02T01:27:39.981Z,9.60
2023-11-02T01:30:11.309Z,9.59
2023-11-02T01:32:37.840Z,9.63
2023-11-02T01:35:11.103Z,9.64
2023-11-02T01:37:37.743Z,9.64
2023-11-02T01:40:10.294Z,9.66
2023-11-02T01:42:43.882Z,9.67
2023-11-02T01:45:13.296Z,9.65
2023-11-02T01:47:53.294Z,9.63
2023-11-02T01:50:29.322Z,9.64
2023-11-02T01:53:20.172Z,9.63
2023-11-02T01:55:55.020Z,9.65
2023-11-02T01:58:33.258Z,9.63
2023-11-02T02:01:26.176Z,9.63
2023-11-02T02:04:23.030Z,9.64
2023-11-02T02:07:04.473Z,9.65
2023-11-02T02:09:39.883Z,9.66
2023-11-02T02:12:09.403Z,9.65
2023-11-02T02:14:56.708Z,9.66
2023-11-02T02:17:49.905Z,9.65
2023-11-02T02:20:32.507Z,9.62
2023-11-02T02:23:19.641Z,9.61
2023-11-02T02:25:58.023Z,9.64
2023-11-02T02:28:45.276Z,9.62
2023-11-02T02:31:15.763Z,9.64
2023-11-02T02:34:23.418Z,9.64
2023-11-02T02:37:11.426Z,9.70
2023-11-02T02:39:44.320Z,9.71
2023-11-02T02:42:16.448Z,9.70
2023-11-02T02:44:47.185Z,9.72
2023-11-02T02:47:18.105Z,9.78
2023-11-02T02:49:52.789Z,9.81
2023-11-02T02:52:25.680Z,9.80
2023-11-02T02:54:54.334Z,9.82
2023-11-02T02:57:21.997Z,9.87
2023-11-02T02:59:54.645Z,9.89
2023-11-02T03:02:26.749Z,9.90
2023-11-02T03:04:56.066Z,9.92
2023-11-02T03:07:25.667Z,9.92
2023-11-02T03:09:57.909Z,9.93
2023-11-02T03:12:30.949Z,9.95
2023-11-02T03:15:05.199Z,9.99
2023-11-02T03:17:41.793Z,10.02
2023-11-02T03:20:10.252Z,10.03
2023-11-02T03:22:38.700Z,10.06
2023-11-02T03:25:43.581Z,10.10
2023-11-02T03:28:27.280Z,10.12
2023-11-02T03:31:42.416Z,10.15
2023-11-02T03:34:17.172Z,10.16
2023-11-02T03:37:00.034Z,10.15
2023-11-02T03:39:38.238Z,10.13
2023-11-02T03:42:18.664Z,10.18
2023-11-02T03:45:14.480Z,10.20
2023-11-02T03:47:59.694Z,10.19
2023-11-02T03:50:38.458Z,10.17
2023-11-02T03:53:11.724Z,10.19
2023-11-02T03:56:02.282Z,10.17
2023-11-02T03:59:07.269Z,10.20
2023-11-02T04:01:52.978Z,10.20
2023-11-02T04:04:39.521Z,10.22
2023-11-02T04:07:23.290Z,10.26
2023-11-02T04:09:55.054Z,10.27
2023-11-02T04:12:35.641Z,10.28
2023-11-02T04:15:06.119Z,10.30
2023-11-02T04:17:32.666Z,10.32
2023-11-02T04:20:00.115Z,10.31
2023-11-02T04:22:26.705Z,10.27
2023-11-02T04:24:53.275Z,10.30
2023-11-02T04:27:20.061Z,10.36
2023-11-02T04:29:46.688Z,10.38
2023-11-02T04:32:13.280Z,10.37
2023-11-02T04:34:40.091Z,10.38
2023-11-02T04:37:16.890Z,10.38
2023-11-02T04:39:44.329Z,10.40
2023-11-02T04:42:11.829Z,10.41
2023-11-02T04:44:39.133Z,10.42
2023-11-02T04:47:05.832Z,10.45
2023-11-02T04:49:36.091Z,10.49
2023-11-02T04:52:07.370Z,10.45
2023-11-02T04:54:34.652Z,10.44
2023-11-02T04:57:02.632Z,10.44
2023-11-02T04:59:35.437Z,10.42
2023-11-02T05:02:02.320Z,10.40
2023-11-02T05:04:28.782Z,10.41
2023-11-02T05:06:55.570Z,10.46
2023-11-02T05:09:22.619Z,10.48
2023-11-02T05:11:49.299Z,10.45
2023-11-02T05:14:15.941Z,10.46
2023-11-02T05:16:42.343Z,10.45
2023-11-02T05:19:09.033Z,10.47
2023-11-02T05:21:35.637Z,10.50
2023-11-02T05:24:02.272Z,10.49
2023-11-02T05:26:29.319Z,10.49
2023-11-02T05:28:58.769Z,10.49
2023-11-02T05:31:25.227Z,10.51
2023-11-02T05:33:52.664Z,10.53
2023-11-02T05:36:26.480Z,10.50
2023-11-02T05:38:53.705Z,10.52
2023-11-02T05:41:20.708Z,10.51
2023-11-02T05:43:47.273Z,10.52
2023-11-02T05:46:13.784Z,10.52
2023-11-02T05:48:40.479Z,10.49
2023-11-02T05:51:07.486Z,10.53
2023-11-02T05:53:34.289Z,10.51
2023-11-02T05:56:01.284Z,10.46
2023-11-02T05:58:28.725Z,10.36
2023-11-02T06:00:55.689Z,10.26
2023-11-02T06:03:22.334Z,10.19
2023-11-02T06:05:48.859Z,10.23
2023-11-02T06:08:15.286Z,10.22
2023-11-02T06:10:42.021Z,10.19
2023-11-02T06:13:08.436Z,10.22
2023-11-02T06:15:35.193Z,10.29
2023-11-02T06:18:02.778Z,10.28
2023-11-02T06:20:29.614Z,10.25
2023-11-02T06:22:56.367Z,10.32
2023-11-02T06:25:23.019Z,10.32
2023-11-02T06:27:49.515Z,10.29
2023-11-02T06:30:16.072Z,10.26
2023-11-02T06:32:42.970Z,10.20
2023-11-02T06:35:10.203Z,10.20
2023-11-02T06:38:06.111Z,10.20
2023-11-02T06:40:32.737Z,10.19
2023-11-02T06:43:00.298Z,10.13
2023-11-02T06:45:27.319Z,10.10
2023-11-02T06:47:53.879Z,10.09
2023-11-02T06:50:20.678Z,10.08
2023-11-02T06:52:47.295Z,10.09
2023-11-02T06:55:13.803Z,10.12
2023-11-02T06:57:40.515Z,10.17
2023-11-02T07:00:10.753Z,10.24
2023-11-02T07:02:38.361Z,10.24
2023-11-02T07:05:05.978Z,10.31
2023-11-02T07:07:39.588Z,10.35
2023-11-02T07:10:11.265Z,10.31
2023-11-02T07:12:38.710Z,10.31
2023-11-02T07:15:06.193Z,10.30
2023-11-02T07:17:33.567Z,10.28
2023-11-02T07:20:00.279Z,10.28
2023-11-02T07:22:26.761Z,10.28
2023-11-02T07:24:53.200Z,10.34
2023-11-02T07:27:19.858Z,10.39
2023-11-02T07:29:46.315Z,10.36
2023-11-02T07:32:13.406Z,10.40
2023-11-02T07:34:39.906Z,10.39
2023-11-02T07:37:06.456Z,10.40
2023-11-02T07:39:35.292Z,10.46
2023-11-02T07:42:03.556Z,10.48
2023-11-02T07:44:31.152Z,10.48
2023-11-02T07:46:57.618Z,10.49
2023-11-02T07:49:24.263Z,10.55
2023-11-02T07:51:50.729Z,10.56
2023-11-02T07:54:17.407Z,10.59
2023-11-02T07:56:45.721Z,10.64
2023-11-02T07:59:13.564Z,10.65
2023-11-02T08:01:40.555Z,10.64
2023-11-02T08:04:08.151Z,10.65
2023-11-02T08:06:35.628Z,10.68
2023-11-02T08:09:02.441Z,10.72
2023-11-02T08:11:29.156Z,10.75
2023-11-02T08:13:57.885Z,10.78
2023-11-02T08:16:24.750Z,10.79
2023-11-02T08:18:51.595Z,10.82
2023-11-02T08:21:18.492Z,10.88
2023-11-02T08:23:45.174Z,10.89
2023-11-02T08:26:12.735Z,10.87
2023-11-02T08:28:39.337Z,10.94
2023-11-02T08:31:06.101Z,11.00
2023-11-02T08:33:32.642Z,11.04
2023-11-02T08:36:00.005Z,11.07
2023-11-02T08:38:26.524Z,11.11
2023-11-02T08:40:53.112Z,11.26
2023-11-02T08:43:19.683Z,11.38
2023-11-02T08:45:46.241Z,11.51
2023-11-02T08:48:12.906Z,11.54
2023-11-02T08:50:39.559Z,11.63
2023-11-02T08:53:06.460Z,11.70
2023-11-02T08:55:32.940Z,11.74
2023-11-02T08:57:59.425Z,11.77
2023-11-02T09:00:26.346Z,11.84
2023-11-02T09:02:55.393Z,11.84
2023-11-02T09:05:22.946Z,11.90
2023-11-02T09:07:50.626Z,11.93
2023-11-02T09:10:17.297Z,12.04
2023-11-02T09:12:43.853Z,12.13
2023-11-02T09:15:10.608Z,12.22
2023-11-02T09:17:37.289Z,12.20
2023-11-02T09:20:09.769Z,12.32
2023-11-02T09:22:37.781Z,12.38
2023-11-02T09:25:04.598Z,12.47
2023-11-02T09:27:34.370Z,12.58
2023-11-02T09:30:04.190Z,12.74
2023-11-02T09:32:32.352Z,12.80
2023-11-02T09:34:58.827Z,12.76
2023-11-02T09:37:27.664Z,12.73
2023-11-02T09:39:54.157Z,12.77
2023-11-02T09:42:20.890Z,12.81
2023-11-02T09:44:48.097Z,12.93
2023-11-02T09:47:14.960Z,12.91
2023-11-02T09:49:46.582Z,12.92
2023-11-02T09:52:13.115Z,12.92
2023-11-02T09:54:46.187Z,12.90
2023-11-02T09:57:16.046Z,12.99
2023-11-02T09:59:54.054Z,12.94
2023-11-02T10:02:35.689Z,12.93
2023-11-02T10:05:04.759Z,12.93
2023-11-02T10:07:31.296Z,12.88
2023-11-02T10:09:57.811Z,12.88
2023-11-02T10:12:24.295Z,12.92
2023-11-02T10:14:50.788Z,12.93
2023-11-02T10:17:22.996Z,12.96
2023-11-02T10:19:49.858Z,13.12
2023-11-02T10:22:18.256Z,13.20
2023-11-02T10:24:46.887Z,13.17
2023-11-02T10:27:13.709Z,13.18
2023-11-02T10:29:40.734Z,13.14
2023-11-02T10:32:11.949Z,13.14
2023-11-02T10:34:45.629Z,13.02
2023-11-02T10:37:12.171Z,13.09
2023-11-02T10:39:39.082Z,13.18
2023-11-02T10:42:05.789Z,13.37
2023-11-02T10:44:37.008Z,13.47
2023-11-02T10:47:05.292Z,13.52
2023-11-02T10:49:39.600Z,13.61
2023-11-02T10:52:12.186Z,13.70
2023-11-02T10:54:43.302Z,13.85
2023-11-02T10:57:20.966Z,13.94
2023-11-02T10:59:48.854Z,13.92
2023-11-02T11:02:18.645Z,13.85
2023-11-02T11:04:47.969Z,13.82
2023-11-02T11:07:15.206Z,13.79
2023-11-02T11:09:42.696Z,13.83
2023-11-02T11:12:10.171Z,13.86
2023-11-02T11:14:39.130Z,13.73
2023-11-02T11:17:18.629Z,13.67
2023-11-02T11:19:45.245Z,13.69
2023-11-02T11:22:24.679Z,13.78
2023-11-02T11:24:56.041Z,13.79
2023-11-02T11:27:36.501Z,13.86
2023-11-02T11:30:06.002Z,13.85
2023-11-02T11:32:38.569Z,13.90
2023-11-02T11:35:11.002Z,13.93
2023-11-02T11:37:50.711Z,13.91
2023-11-02T11:40:20.120Z,13.84
2023-11-02T11:43:14.502Z,13.80
2023-11-02T11:45:44.417Z,13.80
2023-11-02T11:48:14.510Z,13.81
2023-11-02T11:50:45.936Z,13.82
2023-11-02T11:53:21.624Z,13.71
2023-11-02T11:55:50.340Z,13.51
2023-11-02T11:58:20.279Z,13.34
2023-11-02T12:00:54.985Z,13.18
2023-11-02T12:03:34.873Z,13.09
2023-11-02T12:06:08.774Z,13.24
2023-11-02T12:08:49.096Z,13.27
2023-11-02T12:11:24.189Z,13.15
2023-11-02T12:13:59.745Z,13.14
2023-11-02T12:16:34.139Z,13.09
2023-11-02T12:19:03.521Z,13.12
2023-11-02T12:21:30.069Z,13.12
2023-11-02T12:23:57.748Z,13.11
2023-11-02T12:26:26.930Z,13.05
2023-11-02T12:28:57.702Z,12.90
2023-11-02T12:31:32.377Z,12.84
2023-11-02T12:34:04.648Z,12.77
2023-11-02T12:36:32.106Z,12.57
2023-11-02T12:38:59.859Z,12.46
2023-11-02T12:41:34.330Z,12.38
2023-11-02T12:44:07.454Z,12.35
2023-11-02T12:46:45.138Z,12.23
2023-11-02T12:49:19.678Z,12.10
2023-11-02T12:52:03.082Z,12.00
2023-11-02T12:54:32.687Z,11.90
2023-11-02T12:57:01.736Z,11.88
2023-11-02T12:59:28.493Z,11.81
2023-11-02T13:02:00.928Z,11.76
2023-11-02T13:04:54.440Z,11.68
2023-11-02T13:07:23.577Z,11.66
2023-11-02T13:10:16.580Z,11.77
2023-11-02T13:12:46.131Z,11.76
2023-11-02T13:15:14.016Z,11.81
2023-11-02T13:17:44.627Z,11.83
2023-11-02T13:20:16.762Z,11.91
2023-11-02T13:22:51.667Z,11.99
2023-11-02T13:25:18.886Z,12.03
2023-11-02T13:27:49.269Z,12.07
2023-11-02T13:30:17.539Z,12.08
2023-11-02T13:32:44.953Z,12.02
2023-11-02T13:35:13.706Z,11.99
2023-11-02T13:37:41.988Z,11.97
2023-11-02T13:40:16.535Z,11.97
2023-11-02T13:42:47.455Z,11.95
2023-11-02T13:45:25.586Z,11.81
2023-11-02T13:47:52.983Z,11.77
2023-11-02T13:50:19.611Z,11.79
2023-11-02T13:52:46.897Z,11.79
2023-11-02T13:55:13.666Z,11.86
2023-11-02T13:57:40.304Z,11.75
2023-11-02T14:00:08.065Z,11.73
2023-11-02T14:02:35.020Z,11.70
2023-11-02T14:05:02.852Z,11.62
2023-11-02T14:07:30.387Z,11.67
2023-11-02T14:09:57.833Z,11.56
2023-11-02T14:12:25.208Z,11.57
2023-11-02T14:14:52.692Z,11.63
2023-11-02T14:17:21.534Z,11.57
2023-11-02T14:19:49.107Z,11.54
2023-11-02T14:22:17.172Z,11.58
2023-11-02T14:24:44.728Z,11.57
2023-11-02T14:27:14.022Z,11.46
2023-11-02T14:29:43.698Z,11.26
2023-11-02T14:32:11.655Z,11.05
2023-11-02T14:34:38.364Z,11.02
2023-11-02T14:37:05.256Z,11.03
2023-11-02T14:39:32.320Z,10.92
2023-11-02T14:42:01.081Z,10.89
2023-11-02T14:44:27.599Z,10.88
2023-11-02T14:46:56.068Z,10.88
2023-11-02T14:49:22.770Z,10.89
2023-11-02T14:51:49.426Z,10.87
2023-11-02T14:54:15.873Z,10.90
2023-11-02T14:56:42.383Z,10.94
2023-11-02T14:59:09.284Z,10.89
2023-11-02T15:01:39.060Z,10.81
2023-11-02T15:04:06.121Z,10.75
2023-11-02T15:06:33.291Z,10.66
2023-11-02T15:09:07.791Z,10.53
2023-11-02T15:11:37.396Z,10.49
2023-11-02T15:14:04.195Z,10.49
2023-11-02T15:16:31.147Z,10.43
2023-11-02T15:18:58.834Z,10.35
2023-11-02T15:21:26.656Z,10.32
2023-11-02T15:24:12.107Z,10.33
2023-11-02T15:26:38.959Z,10.35
2023-11-02T15:29:05.492Z,10.22
2023-11-02T15:31:32.916Z,10.18
2023-11-02T15:33:59.956Z,10.16
2023-11-02T15:36:26.528Z,10.06
2023-11-02T15:38:53.084Z,9.99
2023-11-02T15:41:24.029Z,9.96
2023-11-02T15:43:54.084Z,9.95
2023-11-02T15:46:21.426Z,9.91
2023-11-02T15:48:48.238Z,9.88
2023-11-02T15:51:15.204Z,9.87
2023-11-02T15:53:43.205Z,9.87
2023-11-02T15:56:16.931Z,9.76
2023-11-02T15:58:44.884Z,9.73
2023-11-02T16:01:25.746Z,9.76
2023-11-02T16:03:54.998Z,9.71
2023-11-02T16:06:26.573Z,9.60
2023-11-02T16:08:53.763Z,9.54
2023-11-02T16:11:21.640Z,9.46
2023-11-02T16:13:49.343Z,9.48
2023-11-02T16:16:17.540Z,9.47
2023-11-02T16:18:44.292Z,9.45
2023-11-02T16:21:11.263Z,9.42
2023-11-02T16:23:38.126Z,9.38
2023-11-02T16:26:05.878Z,9.39
2023-11-02T16:28:33.631Z,9.30
2023-11-02T16:31:01.103Z,9.33
2023-11-02T16:33:28.079Z,9.31
2023-11-02T16:35:55.609Z,9.27
2023-11-02T16:38:25.577Z,9.36
2023-11-02T16:40:52.235Z,9.38
2023-11-02T16:43:19.236Z,9.47
2023-11-02T16:45:47.891Z,9.41
2023-11-02T16:48:14.519Z,9.50
2023-11-02T16:50:41.286Z,9.49
2023-11-02T16:53:07.904Z,9.53
2023-11-02T16:55:35.707Z,9.55
2023-11-02T16:58:02.278Z,9.55
2023-11-02T17:00:28.873Z,9.61
2023-11-02T17:02:55.442Z,9.70
2023-11-02T17:05:24.871Z,9.76
2023-11-02T17:07:51.466Z,9.77
2023-11-02T17:10:18.054Z,9.77
2023-11-02T17:12:45.667Z,9.76
2023-11-02T17:15:12.134Z,9.83
2023-11-02T17:17:41.940Z,9.94
2023-11-02T17:20:09.059Z,9.97
2023-11-02T17:22:38.153Z,9.96
2023-11-02T17:25:05.910Z,9.91
2023-11-02T17:27:35.345Z,9.91
2023-11-02T17:30:02.053Z,9.93
2023-11-02T17:32:29.250Z,10.06
2023-11-02T17:34:55.759Z,10.07
2023-11-02T17:37:23.077Z,10.07
2023-11-02T17:39:49.496Z,10.17
2023-11-02T17:42:16.146Z,10.17
2023-11-02T17:44:42.785Z,10.30
2023-11-02T17:47:09.250Z,10.24
2023-11-02T17:49:36.020Z,10.34
2023-11-02T17:52:03.987Z,10.41
2023-11-02T17:54:31.118Z,10.46
2023-11-02T17:57:03.437Z,10.41
2023-11-02T17:59:31.854Z,10.39
2023-11-02T18:01:59.224Z,10.48
2023-11-02T18:04:26.440Z,10.42
2023-11-02T18:06:53.477Z,10.41
2023-11-02T18:09:20.342Z,10.41
2023-11-02T18:11:47.193Z,10.49
2023-11-02T18:14:13.745Z,10.59
2023-11-02T18:16:40.276Z,10.58
2023-11-02T18:19:09.451Z,10.55
2023-11-02T18:21:36.137Z,10.55
2023-11-02T18:24:04.033Z,10.54
2023-11-02T18:26:33.621Z,10.55
2023-11-02T18:29:02.323Z,10.56
2023-11-02T18:31:31.899Z,10.66
2023-11-02T18:33:58.780Z,10.60
2023-11-02T18:36:25.473Z,10.71
2023-11-02T18:38:52.177Z,10.68
2023-11-02T18:41:21.817Z,10.68
2023-11-02T18:43:48.374Z,10.64
2023-11-02T18:46:19.337Z,10.64
2023-11-02T18:48:50.177Z,10.74
2023-11-02T18:51:16.809Z,10.72
2023-11-02T18:53:43.511Z,10.67
2023-11-02T18:56:12.034Z,10.75
2023-11-02T18:58:39.353Z,10.81
2023-11-02T19:01:06.000Z,10.76
2023-11-02T19:03:32.516Z,10.72
2023-11-02T19:06:03.248Z,10.71
2023-11-02T19:08:33.402Z,10.76
2023-11-02T19:11:04.159Z,10.73
2023-11-02T19:13:31.644Z,10.67
2023-11-02T19:15:58.937Z,10.68
2023-11-02T19:18:25.548Z,10.67
2023-11-02T19:20:52.170Z,10.68
2023-11-02T19:23:21.668Z,10.67
2023-11-02T19:25:49.940Z,10.72
2023-11-02T19:28:17.322Z,10.68
2023-11-02T19:30:44.701Z,10.65
2023-11-02T19:33:11.639Z,10.61
2023-11-02T19:35:38.126Z,10.64
2023-11-02T19:38:04.747Z,10.64
2023-11-02T19:40:32.509Z,10.61
2023-11-02T19:43:00.205Z,10.59
2023-11-02T19:45:27.344Z,10.55
2023-11-02T19:47:59.680Z,10.47
2023-11-02T19:50:26.748Z,10.40
2023-11-02T19:52:53.418Z,10.32
2023-11-02T19:55:22.542Z,10.24
2023-11-02T19:57:49.098Z,10.19
2023-11-02T20:00:16.012Z,10.11
2023-11-02T20:02:46.424Z,10.05
2023-11-02T20:05:14.540Z,10.00
2023-11-02T20:07:41.555Z,9.96
2023-11-02T20:10:09.505Z,9.90
2023-11-02T20:12:43.193Z,9.93
2023-11-02T20:15:10.466Z,9.85
2023-11-02T20:17:38.460Z,9.80
2023-11-02T20:20:06.473Z,9.78
2023-11-02T20:22:33.906Z,9.80
2023-11-02T20:25:00.748Z,9.72
2023-11-02T20:27:28.654Z,9.66
2023-11-02T20:29:55.248Z,9.60
2023-11-02T20:32:21.877Z,9.57
2023-11-02T20:34:48.489Z,9.49
2023-11-02T20:37:15.281Z,9.44
2023-11-02T20:39:42.103Z,9.38
2023-11-02T20:42:08.565Z,9.37
2023-11-02T20:44:35.484Z,9.27
2023-11-02T20:47:02.115Z,9.21
2023-11-02T20:49:28.930Z,9.17
2023-11-02T20:51:55.687Z,9.12
2023-11-02T20:54:22.392Z,9.11
2023-11-02T20:56:52.899Z,9.01
2023-11-02T20:59:19.408Z,9.00
2023-11-02T21:01:46.050Z,8.96
2023-11-02T21:04:13.350Z,8.95
2023-11-02T21:06:51.639Z,8.92
2023-11-02T21:09:24.769Z,8.84
2023-11-02T21:11:51.399Z,8.80
2023-11-02T21:14:17.992Z,8.72
2023-11-02T21:16:44.625Z,8.67
2023-11-02T21:19:13.095Z,8.55
2023-11-02T21:21:41.280Z,8.49
2023-11-02T21:24:08.938Z,8.38
2023-11-02T21:26:35.481Z,8.29
2023-11-02T21:29:02.344Z,8.20
2023-11-02T21:31:28.907Z,8.12
2023-11-02T21:33:55.871Z,8.02
2023-11-02T21:36:22.524Z,7.94
2023-11-02T21:38:48.986Z,7.87
2023-11-02T21:41:15.566Z,7.81
2023-11-02T21:43:43.647Z,7.77
2023-11-02T21:46:10.637Z,7.70
2023-11-02T21:48:37.339Z,7.74
2023-11-02T21:51:07.294Z,7.65
2023-11-02T21:53:33.963Z,7.63
2023-11-02T21:56:00.514Z,7.62
2023-11-02T21:58:27.134Z,7.60
2023-11-02T22:00:53.593Z,7.59
2023-11-02T22:03:20.851Z,7.57
2023-11-02T22:05:47.593Z,7.51
2023-11-02T22:08:14.050Z,7.47
2023-11-02T22:10:40.650Z,7.48
2023-11-02T22:13:09.878Z,7.47
2023-11-02T22:15:36.413Z,7.46
2023-11-02T22:18:04.129Z,7.47
2023-11-02T22:20:31.374Z,7.46
2023-11-02T22:22:58.238Z,7.46
2023-11-02T22:25:25.752Z,7.46
2023-11-02T22:27:52.567Z,7.45
2023-11-02T22:30:19.120Z,7.42
2023-11-02T22:32:45.826Z,7.48
2023-11-02T22:35:14.061Z,7.54
2023-11-02T22:37:40.561Z,7.56
2023-11-02T22:40:07.775Z,7.56
2023-11-02T22:42:34.494Z,7.57
2023-11-02T22:45:01.318Z,7.56
2023-11-02T22:47:27.795Z,7.59
2023-11-02T22:49:54.239Z,7.61
2023-11-02T22:52:20.738Z,7.63
2023-11-02T22:54:47.585Z,7.65
2023-11-02T22:57:14.099Z,7.70
2023-11-02T22:59:41.320Z,7.70
2023-11-02T23:02:08.581Z,7.74
2023-11-02T23:04:35.459Z,7.74
2023-11-02T23:07:02.007Z,7.76
2023-11-02T23:09:28.748Z,7.79
2023-11-02T23:11:55.223Z,7.82
2023-11-02T23:14:21.953Z,7.82
2023-11-02T23:16:48.429Z,7.83
2023-11-02T23:19:15.823Z,7.85
2023-11-02T23:21:45.489Z,7.85
2023-11-02T23:24:12.125Z,7.84
2023-11-02T23:26:39.854Z,7.92
2023-11-02T23:29:08.766Z,7.92
2023-11-02T23:31:36.274Z,7.93
2023-11-02T23:34:03.210Z,7.94
2023-11-02T23:36:30.693Z,7.95
2023-11-02T23:38:57.388Z,7.94
2023-11-02T23:41:34.371Z,7.99
2023-11-02T23:44:00.817Z,7.96
2023-11-02T23:46:27.275Z,7.99
2023-11-02T23:48:53.814Z,7.95
2023-11-02T23:51:27.271Z,7.94
2023-11-02T23:53:54.542Z,7.95
2023-11-02T23:56:21.706Z,8.01
2023-11-02T23:58:48.337Z,8.05
